Time;durP1;ratioP1;P1;durP2;ratioP2;P2;SDS_P1;SDS_P2;PMS_P1;PMS_P2;Temp;Humidity;BMP_temperature;BMP_pressure;BME280_temperature;BME280_humidity;BME280_pressure;Samples;Min_cycle;Max_cycle;Signal;HPM_P1;HPM_P2
2023/08/20 00:00:32;;;;;;;12.80;7.35;;;20.70;90.30;;;;;;5116864;28;20028;-77
2023/08/20 00:03:04;;;;;;;8.95;7.00;;;20.70;90.30;;;;;;5099934;28;20028;-77
2023/08/20 00:05:31;;;;;;;11.20;6.57;;;20.70;90.20;;;;;;5116624;28;20083;-77
2023/08/20 00:07:57;;;;;;;10.70;6.75;;;20.60;90.10;;;;;;5116538;28;20027;-77
2023/08/20 00:10:22;;;;;;;9.75;6.80;;;20.60;90.30;;;;;;5134631;28;20038;-77
2023/08/20 00:12:48;;;;;;;12.13;7.50;;;20.60;90.40;;;;;;5099684;28;20035;-77
2023/08/20 00:15:13;;;;;;;11.30;6.55;;;20.70;90.40;;;;;;5116463;28;20051;-77
2023/08/20 00:17:40;;;;;;;10.93;7.55;;;20.70;90.30;;;;;;5099529;28;20037;-77
2023/08/20 00:20:14;;;;;;;12.15;6.93;;;20.70;90.20;;;;;;5116405;28;20026;-77
2023/08/20 00:22:42;;;;;;;14.55;7.47;;;20.70;90.40;;;;;;5100495;28;20027;-77
2023/08/20 00:25:08;;;;;;;10.10;6.68;;;20.70;90.30;;;;;;5134349;28;20027;-77
2023/08/20 00:27:34;;;;;;;12.73;7.18;;;20.50;90.40;;;;;;5134312;28;20028;-77
2023/08/20 00:29:59;;;;;;;11.93;7.68;;;20.40;90.50;;;;;;5134258;28;20036;-77
2023/08/20 00:32:25;;;;;;;13.38;8.15;;;20.30;90.60;;;;;;5134178;28;20020;-77
2023/08/20 00:34:50;;;;;;;9.30;7.80;;;20.40;90.80;;;;;;5116188;28;20088;-77
2023/08/20 00:37:17;;;;;;;14.40;7.85;;;20.40;90.80;;;;;;5134160;28;20016;-77
2023/08/20 00:39:42;;;;;;;11.88;7.75;;;20.50;90.70;;;;;;5116175;28;20024;-77
2023/08/20 00:42:08;;;;;;;12.18;7.55;;;20.50;90.70;;;;;;5134094;28;20020;-77
2023/08/20 00:44:34;;;;;;;12.55;7.85;;;20.50;90.60;;;;;;5134119;28;20019;-77
2023/08/20 00:47:02;;;;;;;14.05;8.40;;;20.50;90.60;;;;;;5134052;28;20024;-77
2023/08/20 00:49:29;;;;;;;13.90;7.82;;;20.50;90.60;;;;;;5116405;28;20030;-77
2023/08/20 00:51:55;;;;;;;12.25;7.28;;;20.40;90.80;;;;;;5133971;28;20024;-77
2023/08/20 00:54:22;;;;;;;10.98;7.05;;;20.30;90.80;;;;;;5115855;28;20023;-77
2023/08/20 00:56:49;;;;;;;12.40;7.90;;;20.10;90.90;;;;;;5133902;28;20011;-77
2023/08/20 00:59:15;;;;;;;12.98;7.10;;;20.10;91.20;;;;;;5135017;28;20022;-78
2023/08/20 01:01:41;;;;;;;10.05;7.15;;;20.10;91.10;;;;;;5105769;28;20016;-77
2023/08/20 01:04:07;;;;;;;10.48;6.93;;;20.10;91.10;;;;;;5140715;28;20030;-78
2023/08/20 01:06:54;;;;;;;9.65;7.30;;;20.10;91.10;;;;;;5140692;28;20055;-77
2023/08/20 01:09:48;;;;;;;13.82;7.97;;;20.10;90.90;;;;;;5140867;28;20024;-77
2023/08/20 01:12:16;;;;;;;10.98;7.38;;;20.00;91.30;;;;;;5140672;28;20023;-78
2023/08/20 01:14:41;;;;;;;11.25;7.88;;;19.90;91.60;;;;;;5140453;28;20040;-77
2023/08/20 01:17:07;;;;;;;9.18;6.78;;;19.90;91.70;;;;;;5122605;28;20502;-77
2023/08/20 01:19:33;;;;;;;12.43;7.75;;;20.00;91.70;;;;;;5140555;28;20032;-77
2023/08/20 01:22:04;;;;;;;11.18;7.43;;;20.00;91.60;;;;;;5122432;28;20090;-77
2023/08/20 01:24:54;;;;;;;10.00;7.35;;;20.10;91.60;;;;;;5140720;28;20030;-77
2023/08/20 01:27:35;;;;;;;12.18;8.32;;;20.20;91.60;;;;;;5122479;28;20027;-77
2023/08/20 01:30:03;;;;;;;13.23;8.07;;;20.20;91.50;;;;;;5140665;28;20024;-78
2023/08/20 01:32:29;;;;;;;13.57;8.05;;;20.20;91.60;;;;;;5122318;28;20031;-78
2023/08/20 01:34:54;;;;;;;13.07;8.20;;;20.20;91.60;;;;;;5122377;28;20020;-77
2023/08/20 01:37:20;;;;;;;14.68;8.25;;;20.30;91.70;;;;;;5122485;28;20028;-77
2023/08/20 01:39:46;;;;;;;13.90;8.63;;;20.30;91.80;;;;;;5122304;28;20032;-77
2023/08/20 01:42:11;;;;;;;11.95;8.20;;;20.40;91.80;;;;;;5105389;28;20024;-77
2023/08/20 01:44:37;;;;;;;13.85;8.40;;;20.40;91.90;;;;;;5140346;28;20043;-77
2023/08/20 01:47:03;;;;;;;13.27;9.30;;;20.50;91.90;;;;;;5140464;28;20050;-78
2023/08/20 01:49:29;;;;;;;14.60;9.15;;;20.50;92.00;;;;;;5122261;28;20039;-78
2023/08/20 01:51:54;;;;;;;13.68;8.90;;;20.50;92.50;;;;;;5105413;28;20038;-78
2023/08/20 01:54:20;;;;;;;15.60;9.88;;;20.50;92.30;;;;;;5105414;28;20032;-78
2023/08/20 01:56:46;;;;;;;14.95;10.18;;;20.50;92.30;;;;;;5122310;28;20020;-78
2023/08/20 01:59:12;;;;;;;15.18;9.43;;;20.40;92.60;;;;;;5105426;28;20015;-77
2023/08/20 02:01:38;;;;;;;16.50;9.82;;;20.30;92.90;;;;;;5105492;28;20100;-77
2023/08/20 02:04:03;;;;;;;15.52;9.73;;;20.30;93.10;;;;;;5122251;28;20028;-77
2023/08/20 02:06:29;;;;;;;16.55;10.80;;;20.30;93.30;;;;;;5140162;28;20101;-77
2023/08/20 02:08:55;;;;;;;13.98;9.60;;;20.30;93.50;;;;;;5122145;28;20020;-77
2023/08/20 02:11:20;;;;;;;15.80;9.95;;;20.30;93.70;;;;;;5119779;28;20510;-77
2023/08/20 02:13:46;;;;;;;18.33;9.95;;;20.30;93.80;;;;;;5136656;28;20036;-78
2023/08/20 02:16:11;;;;;;;14.80;9.60;;;20.30;93.70;;;;;;5101881;28;20027;-78
2023/08/20 02:18:37;;;;;;;15.95;9.93;;;20.40;93.70;;;;;;5136799;28;20019;-77
2023/08/20 02:21:03;;;;;;;15.65;9.88;;;20.30;93.70;;;;;;5101774;28;20032;-77
2023/08/20 02:23:29;;;;;;;15.18;10.00;;;20.40;94.20;;;;;;5136671;28;20083;-77
2023/08/20 02:25:54;;;;;;;13.07;9.20;;;20.40;94.10;;;;;;5118728;28;20036;-77
2023/08/20 02:28:20;;;;;;;14.48;9.80;;;20.30;93.70;;;;;;5118706;28;20054;-77
2023/08/20 02:30:46;;;;;;;13.02;9.50;;;20.20;93.90;;;;;;5101598;28;20032;-77
2023/08/20 02:33:12;;;;;;;17.30;9.73;;;20.20;94.00;;;;;;5136428;28;20046;-77
2023/08/20 02:35:39;;;;;;;12.55;8.68;;;20.20;94.00;;;;;;5136523;28;20027;-78
2023/08/20 02:38:05;;;;;;;14.18;8.90;;;20.20;94.00;;;;;;5118332;28;20024;-78
2023/08/20 02:40:31;;;;;;;13.63;9.20;;;20.20;94.10;;;;;;5136517;28;20045;-78
2023/08/20 02:42:57;;;;;;;14.52;9.23;;;20.20;94.10;;;;;;5118355;28;20051;-77
2023/08/20 02:45:22;;;;;;;13.60;9.10;;;20.20;94.10;;;;;;5118380;28;20050;-77
2023/08/20 02:47:49;;;;;;;12.60;9.00;;;20.30;94.20;;;;;;5118201;28;20243;-77
2023/08/20 02:50:15;;;;;;;11.52;8.65;;;20.30;94.10;;;;;;5118085;28;20027;-77
2023/08/20 02:52:42;;;;;;;11.65;8.57;;;20.40;94.00;;;;;;5136024;28;20027;-77
2023/08/20 02:55:08;;;;;;;14.05;8.82;;;20.50;93.90;;;;;;5118003;28;20024;-77
2023/08/20 02:57:34;;;;;;;13.80;8.80;;;20.50;93.70;;;;;;5117941;28;20016;-78
2023/08/20 03:00:00;;;;;;;12.40;8.82;;;20.60;93.70;;;;;;5117938;28;20019;-77
2023/08/20 03:02:25;;;;;;;11.38;8.35;;;20.60;93.60;;;;;;5135920;28;20103;-77
2023/08/20 03:04:51;;;;;;;11.80;8.70;;;20.60;93.40;;;;;;5135898;28;20073;-77
2023/08/20 03:07:16;;;;;;;13.25;8.48;;;20.60;93.30;;;;;;5135847;28;20067;-77
2023/08/20 03:09:42;;;;;;;12.52;8.25;;;20.50;93.30;;;;;;5100870;28;20034;-77
2023/08/20 03:12:08;;;;;;;11.80;8.55;;;20.50;93.30;;;;;;5135751;28;20023;-78
2023/08/20 03:14:34;;;;;;;10.30;8.23;;;20.40;93.30;;;;;;5100651;28;20043;-78
2023/08/20 03:16:59;;;;;;;14.93;8.75;;;20.50;93.20;;;;;;5117677;28;20020;-78
2023/08/20 03:19:25;;;;;;;13.05;8.65;;;20.40;93.10;;;;;;5117792;28;20367;-77
2023/08/20 03:21:50;;;;;;;11.85;7.80;;;20.30;93.10;;;;;;5117652;28;20031;-78
2023/08/20 03:24:16;;;;;;;9.45;6.75;;;20.30;93.10;;;;;;5117355;28;20060;-77
2023/08/20 03:26:42;;;;;;;9.07;6.28;;;20.30;93.00;;;;;;5100599;28;20038;-77
2023/08/20 03:29:07;;;;;;;11.63;6.88;;;20.30;92.80;;;;;;5135556;28;20052;-78
2023/08/20 03:31:33;;;;;;;10.48;6.90;;;20.30;92.80;;;;;;5117141;28;20032;-77
2023/08/20 03:33:58;;;;;;;11.88;7.40;;;20.30;92.80;;;;;;5117099;28;20032;-77
2023/08/20 03:36:24;;;;;;;10.13;7.05;;;20.20;93.10;;;;;;5117363;28;20035;-78
2023/08/20 03:38:49;;;;;;;12.63;7.65;;;20.20;92.70;;;;;;5117208;28;20096;-77
2023/08/20 03:41:15;;;;;;;11.38;7.40;;;20.10;92.60;;;;;;5135154;28;20059;-78
2023/08/20 03:43:41;;;;;;;10.60;7.50;;;20.00;92.50;;;;;;5117126;28;20038;-77
2023/08/20 03:46:06;;;;;;;11.43;7.15;;;20.00;92.60;;;;;;5135193;28;20487;-77
2023/08/20 03:48:32;;;;;;;13.30;7.43;;;20.00;92.60;;;;;;5116995;28;20028;-77
2023/08/20 03:50:57;;;;;;;11.25;7.35;;;19.90;92.50;;;;;;5116972;28;20032;-77
2023/08/20 03:53:23;;;;;;;8.80;7.18;;;19.90;92.50;;;;;;5116786;28;20036;-77
2023/08/20 03:55:49;;;;;;;9.75;7.47;;;19.90;92.40;;;;;;5116967;28;20028;-77
2023/08/20 03:58:16;;;;;;;9.68;7.30;;;19.90;92.30;;;;;;5116884;28;20015;-77
2023/08/20 04:00:41;;;;;;;10.98;7.10;;;19.90;92.30;;;;;;5134782;28;20015;-77
2023/08/20 04:03:07;;;;;;;10.02;6.75;;;19.80;92.10;;;;;;5116762;28;20034;-77
2023/08/20 04:05:39;;;;;;;10.05;7.20;;;19.80;92.10;;;;;;5083021;28;20076;-77
2023/08/20 04:08:06;;;;;;;8.95;6.85;;;19.80;92.00;;;;;;5134636;28;20020;-77
2023/08/20 04:10:32;;;;;;;10.45;7.30;;;19.70;92.00;;;;;;5116656;28;20367;-77
2023/08/20 04:12:59;;;;;;;11.95;7.43;;;19.70;92.10;;;;;;5116421;28;20043;-77
2023/08/20 04:15:24;;;;;;;10.52;7.22;;;19.60;92.00;;;;;;5116514;28;20047;-78
2023/08/20 04:17:50;;;;;;;10.70;7.15;;;19.60;92.00;;;;;;5116478;28;20042;-77
2023/08/20 04:20:15;;;;;;;12.75;6.82;;;19.60;91.90;;;;;;5099588;28;20083;-77
2023/08/20 04:22:42;;;;;;;8.20;6.40;;;19.50;91.90;;;;;;5116526;28;20035;-77
2023/08/20 04:25:08;;;;;;;11.60;7.55;;;19.50;91.90;;;;;;5116520;28;20049;-77
2023/08/20 04:27:34;;;;;;;9.82;6.30;;;19.50;91.90;;;;;;5116474;28;20081;-77
2023/08/20 04:29:59;;;;;;;9.30;7.18;;;19.50;91.90;;;;;;5116265;28;20028;-77
2023/08/20 04:32:25;;;;;;;9.88;7.07;;;19.60;91.90;;;;;;5116198;28;20028;-77
2023/08/20 04:34:52;;;;;;;11.07;7.43;;;19.50;91.70;;;;;;5115562;28;20153;-77
2023/08/20 04:37:19;;;;;;;12.15;7.47;;;19.50;91.80;;;;;;5116433;28;20015;-77
2023/08/20 04:39:45;;;;;;;12.00;8.27;;;19.50;91.70;;;;;;5134163;28;20194;-77
2023/08/20 04:42:10;;;;;;;11.10;7.72;;;19.50;91.70;;;;;;5099303;28;20040;-77
2023/08/20 04:44:36;;;;;;;10.20;7.28;;;19.50;91.60;;;;;;5116107;28;20035;-77
2023/08/20 04:47:01;;;;;;;11.15;7.82;;;19.50;91.60;;;;;;5134011;28;20036;-77
2023/08/20 04:49:29;;;;;;;13.02;8.35;;;19.50;91.50;;;;;;5116012;28;20103;-77
2023/08/20 04:51:54;;;;;;;12.20;7.97;;;19.40;91.50;;;;;;5082898;28;20447;-77
2023/08/20 04:54:20;;;;;;;14.55;7.72;;;19.40;91.50;;;;;;5115947;28;20028;-77
2023/08/20 04:56:46;;;;;;;13.70;8.75;;;19.40;91.60;;;;;;5099254;28;20032;-76
2023/08/20 04:59:12;;;;;;;12.55;8.02;;;19.40;91.60;;;;;;5116086;28;20019;-76
2023/08/20 05:01:40;;;;;;;13.13;8.70;;;19.40;91.70;;;;;;5133891;28;20024;-76
2023/08/20 05:04:05;;;;;;;13.85;8.70;;;19.40;91.80;;;;;;5115917;28;20028;-76
2023/08/20 05:06:31;;;;;;;15.25;8.75;;;19.30;91.80;;;;;;5082153;28;20047;-77
2023/08/20 05:08:57;;;;;;;12.93;9.50;;;19.40;91.90;;;;;;5133824;28;20087;-76
2023/08/20 05:11:22;;;;;;;16.98;10.18;;;19.40;92.00;;;;;;5133811;28;20036;-76
2023/08/20 05:13:50;;;;;;;15.90;9.60;;;19.40;92.00;;;;;;5115627;28;20039;-77
2023/08/20 05:16:15;;;;;;;14.75;9.88;;;19.40;92.10;;;;;;5133841;28;20075;-77
2023/08/20 05:18:42;;;;;;;16.35;11.52;;;19.40;92.00;;;;;;5082102;28;20479;-77
2023/08/20 05:21:08;;;;;;;14.75;9.38;;;19.30;92.00;;;;;;5133696;28;20023;-77
2023/08/20 05:23:34;;;;;;;14.43;8.90;;;19.20;92.20;;;;;;5133701;28;20032;-76
2023/08/20 05:25:59;;;;;;;13.13;9.13;;;19.20;92.30;;;;;;5098793;28;20027;-76
2023/08/20 05:28:25;;;;;;;11.10;8.32;;;19.20;92.40;;;;;;5098750;28;20049;-77
2023/08/20 05:30:56;;;;;;;14.15;9.30;;;19.20;92.40;;;;;;5115682;28;20046;-76
2023/08/20 05:33:22;;;;;;;14.02;9.05;;;19.20;92.60;;;;;;5098944;28;20046;-77
2023/08/20 05:35:48;;;;;;;12.35;8.88;;;19.20;92.80;;;;;;5115496;28;20023;-76
2023/08/20 05:38:13;;;;;;;13.70;9.63;;;19.20;92.90;;;;;;5133568;28;20034;-77
2023/08/20 05:40:39;;;;;;;15.02;10.02;;;19.30;93.00;;;;;;5098634;28;20091;-76
2023/08/20 05:43:04;;;;;;;16.42;10.82;;;19.40;93.00;;;;;;5115506;28;20028;-76
2023/08/20 05:45:30;;;;;;;18.30;11.65;;;19.40;93.00;;;;;;5098552;28;20032;-76
2023/08/20 05:47:55;;;;;;;15.90;10.50;;;19.50;93.00;;;;;;5118391;28;20020;-77
2023/08/20 05:50:21;;;;;;;16.85;10.90;;;19.50;93.00;;;;;;5119444;28;20391;-76
2023/08/20 05:52:48;;;;;;;16.58;11.60;;;19.50;93.00;;;;;;5119272;28;20043;-76
2023/08/20 05:55:14;;;;;;;17.73;12.00;;;19.60;93.10;;;;;;5102268;28;20055;-76
2023/08/20 05:57:41;;;;;;;20.80;12.30;;;19.60;93.20;;;;;;5137203;28;20093;-76
2023/08/20 06:00:07;;;;;;;19.70;12.00;;;19.70;93.30;;;;;;5102401;28;20016;-77
2023/08/20 06:02:33;;;;;;;20.48;14.07;;;19.70;93.70;;;;;;5119147;28;20027;-76
2023/08/20 06:04:58;;;;;;;22.15;13.80;;;19.80;93.50;;;;;;5102104;28;20048;-76
2023/08/20 06:07:24;;;;;;;20.25;14.02;;;19.80;93.50;;;;;;5118949;28;20034;-76
2023/08/20 06:09:50;;;;;;;22.92;15.48;;;19.90;93.50;;;;;;5118993;28;20019;-77
2023/08/20 06:12:16;;;;;;;22.25;14.77;;;19.90;93.60;;;;;;5118992;28;20031;-77
2023/08/20 06:14:42;;;;;;;20.67;14.63;;;19.90;93.60;;;;;;5118732;28;20449;-76
2023/08/20 06:17:07;;;;;;;21.45;15.38;;;20.00;93.70;;;;;;5136867;28;20102;-76
2023/08/20 06:19:34;;;;;;;19.48;14.45;;;20.00;93.80;;;;;;5118877;28;20378;-75
2023/08/20 06:22:00;;;;;;;19.95;13.45;;;20.00;93.80;;;;;;5118543;28;20024;-75
2023/08/20 06:24:26;;;;;;;17.00;12.85;;;20.10;93.90;;;;;;5136698;28;20081;-77
2023/08/20 06:26:52;;;;;;;22.60;13.82;;;20.20;93.90;;;;;;5101720;28;20028;-78
2023/08/20 06:29:18;;;;;;;18.48;12.65;;;20.20;94.00;;;;;;5136654;28;20524;-76
2023/08/20 06:31:43;;;;;;;17.55;11.65;;;20.20;94.00;;;;;;5118685;28;20031;-76
2023/08/20 06:34:09;;;;;;;18.88;12.55;;;20.30;94.00;;;;;;5101464;28;20059;-76
2023/08/20 06:36:35;;;;;;;18.92;11.32;;;20.30;94.00;;;;;;5118354;28;20091;-76
2023/08/20 06:39:01;;;;;;;19.50;11.15;;;20.40;93.90;;;;;;5136466;28;20016;-76
2023/08/20 06:41:27;;;;;;;17.25;10.38;;;20.40;93.90;;;;;;5101427;28;20027;-76
2023/08/20 06:43:53;;;;;;;13.73;9.25;;;20.40;93.90;;;;;;5101326;28;20024;-76
2023/08/20 06:46:18;;;;;;;15.88;10.15;;;20.50;93.70;;;;;;5136289;28;20467;-76
2023/08/20 06:48:44;;;;;;;15.65;9.13;;;20.50;93.60;;;;;;5118259;28;20034;-76
2023/08/20 06:51:20;;;;;;;14.50;8.38;;;20.60;93.60;;;;;;5136165;28;20093;-77
2023/08/20 06:53:45;;;;;;;16.90;8.50;;;20.60;93.40;;;;;;5136218;28;20020;-76
2023/08/20 06:56:11;;;;;;;17.30;8.38;;;20.70;93.40;;;;;;5101116;28;20031;-76
2023/08/20 06:58:41;;;;;;;13.68;7.68;;;20.70;93.20;;;;;;5135541;28;20024;-76
2023/08/20 07:01:07;;;;;;;15.73;7.57;;;20.70;93.00;;;;;;5136090;28;20023;-76
2023/08/20 07:03:34;;;;;;;10.55;6.75;;;20.70;92.90;;;;;;5117881;28;20030;-76
2023/08/20 07:06:00;;;;;;;11.38;6.25;;;20.70;92.90;;;;;;5100975;28;20035;-77
2023/08/20 07:08:25;;;;;;;13.02;6.85;;;20.90;92.70;;;;;;5135883;28;20165;-76
2023/08/20 07:10:52;;;;;;;13.10;5.82;;;20.90;92.50;;;;;;5117901;28;20048;-76
2023/08/20 07:13:18;;;;;;;10.75;4.20;;;20.90;92.20;;;;;;5100704;28;20096;-76
2023/08/20 07:15:43;;;;;;;8.43;4.18;;;20.90;92.00;;;;;;5117501;28;20059;-77
2023/08/20 07:18:12;;;;;;;6.15;4.03;;;20.90;91.80;;;;;;5135773;28;20040;-76
2023/08/20 07:20:38;;;;;;;7.72;2.83;;;21.00;91.60;;;;;;5084973;28;20493;-76
2023/08/20 07:23:04;;;;;;;6.70;3.03;;;21.00;91.30;;;;;;5083980;28;20035;-76
2023/08/20 07:25:30;;;;;;;9.82;3.97;;;21.10;90.80;;;;;;5100589;28;20058;-76
2023/08/20 07:27:59;;;;;;;10.52;4.07;;;21.10;90.90;;;;;;5135576;28;20095;-76
2023/08/20 07:30:25;;;;;;;8.10;4.05;;;21.10;91.00;;;;;;5117953;28;20032;-76
2023/08/20 07:32:51;;;;;;;8.57;3.58;;;21.20;90.60;;;;;;5117513;28;20091;-76
2023/08/20 07:35:17;;;;;;;11.98;2.50;;;21.20;90.60;;;;;;5100456;28;20057;-76
2023/08/20 07:37:42;;;;;;;6.72;2.72;;;21.30;90.40;;;;;;5117220;28;20032;-75
2023/08/20 07:40:09;;;;;;;4.97;2.40;;;21.30;90.10;;;;;;5135246;28;20025;-76
2023/08/20 07:42:35;;;;;;;8.02;2.90;;;21.40;90.10;;;;;;5100320;28;20108;-76
2023/08/20 07:45:01;;;;;;;6.53;2.95;;;21.40;89.80;;;;;;5100440;28;20079;-76
2023/08/20 07:47:28;;;;;;;8.43;3.10;;;21.50;89.50;;;;;;5100208;28;20028;-75
2023/08/20 07:49:54;;;;;;;9.77;3.20;;;21.60;89.20;;;;;;5117426;28;20020;-76
2023/08/20 07:52:20;;;;;;;9.02;3.58;;;21.60;89.20;;;;;;5116955;28;20057;-76
2023/08/20 07:54:45;;;;;;;9.13;3.13;;;21.70;89.10;;;;;;5099835;28;20039;-76
2023/08/20 07:57:11;;;;;;;8.77;3.10;;;21.70;89.40;;;;;;5116968;28;20057;-76
2023/08/20 07:59:38;;;;;;;7.43;3.10;;;21.80;89.10;;;;;;5117040;28;20090;-76
2023/08/20 08:02:03;;;;;;;7.47;3.00;;;21.90;88.60;;;;;;5116829;28;20031;-75
2023/08/20 08:04:29;;;;;;;7.60;2.60;;;22.00;88.50;;;;;;5116659;28;20035;-76
2023/08/20 08:06:55;;;;;;;7.63;3.20;;;22.00;87.70;;;;;;5116634;28;20094;-75
2023/08/20 08:09:29;;;;;;;7.03;2.97;;;22.00;87.70;;;;;;5098974;28;20024;-76
2023/08/20 08:11:56;;;;;;;7.10;3.15;;;22.10;88.40;;;;;;5099840;28;20028;-75
2023/08/20 08:14:21;;;;;;;13.02;3.22;;;22.10;88.00;;;;;;5134283;28;20047;-76
2023/08/20 08:16:47;;;;;;;9.13;2.75;;;22.20;88.10;;;;;;5116670;28;20034;-75
2023/08/20 08:19:14;;;;;;;6.18;2.58;;;22.20;87.00;;;;;;5116634;28;20020;-75
2023/08/20 08:21:42;;;;;;;10.70;3.17;;;22.30;87.10;;;;;;5116358;28;20035;-75
2023/08/20 08:24:07;;;;;;;6.28;3.20;;;22.40;87.20;;;;;;5116400;28;20547;-75
2023/08/20 08:26:35;;;;;;;5.65;3.13;;;22.50;87.00;;;;;;5116404;28;20023;-75
2023/08/20 08:29:02;;;;;;;9.07;3.65;;;22.50;86.40;;;;;;5116347;28;20020;-75
2023/08/20 08:31:27;;;;;;;6.88;2.90;;;22.50;86.20;;;;;;5134288;28;20015;-75
2023/08/20 08:33:53;;;;;;;9.88;3.03;;;22.60;86.60;;;;;;5099339;28;20038;-75
2023/08/20 08:36:18;;;;;;;9.07;3.05;;;22.60;86.70;;;;;;5116241;28;20015;-75
2023/08/20 08:38:44;;;;;;;7.97;3.53;;;22.70;85.90;;;;;;5134183;28;20496;-75
2023/08/20 08:41:12;;;;;;;9.50;3.33;;;22.70;85.20;;;;;;5116069;28;20031;-75
2023/08/20 08:43:38;;;;;;;8.15;3.40;;;22.80;85.50;;;;;;5134081;28;20024;-75
2023/08/20 08:46:15;;;;;;;9.75;3.80;;;22.80;84.60;;;;;;5116041;28;20488;-75
2023/08/20 08:48:42;;;;;;;6.80;3.60;;;22.80;85.80;;;;;;5099226;28;20104;-75
2023/08/20 08:51:08;;;;;;;6.35;3.10;;;22.90;86.00;;;;;;5116041;28;20031;-75
2023/08/20 08:53:34;;;;;;;9.05;3.63;;;23.00;85.70;;;;;;5115982;28;20036;-75
2023/08/20 08:56:01;;;;;;;7.65;3.13;;;23.00;85.30;;;;;;5133996;28;20043;-75
2023/08/20 08:58:26;;;;;;;11.73;3.70;;;23.10;85.20;;;;;;5133932;28;20049;-75
2023/08/20 09:00:53;;;;;;;7.82;3.80;;;23.20;84.60;;;;;;5099254;28;20027;-75
2023/08/20 09:03:19;;;;;;;10.38;4.53;;;23.30;84.90;;;;;;5115796;28;20020;-75
2023/08/20 09:05:48;;;;;;;9.13;3.83;;;23.40;84.80;;;;;;5115877;28;20054;-75
2023/08/20 09:08:21;;;;;;;9.05;3.80;;;23.40;85.10;;;;;;5133847;28;20087;-75
2023/08/20 09:10:49;;;;;;;;;;;23.60;85.00;;;;;;5134162;28;20035;-75
2023/08/20 09:13:15;;;;;;;6.30;3.65;;;23.60;83.90;;;;;;5115688;28;20386;-76
2023/08/20 09:15:41;;;;;;;6.55;3.35;;;23.60;83.90;;;;;;5133616;28;20047;-75
2023/08/20 09:18:10;;;;;;;10.32;3.80;;;23.60;83.30;;;;;;5098815;28;20091;-75
2023/08/20 09:20:38;;;;;;;7.00;3.10;;;23.70;81.70;;;;;;5134636;28;20024;-75
2023/08/20 09:23:13;;;;;;;6.80;3.45;;;23.70;81.30;;;;;;5119836;28;20127;-75
2023/08/20 09:25:39;;;;;;;7.72;3.20;;;23.80;82.70;;;;;;5103078;28;20024;-75
2023/08/20 09:28:05;;;;;;;4.72;2.55;;;23.90;81.70;;;;;;5137769;28;20034;-75
2023/08/20 09:30:32;;;;;;;6.85;2.45;;;24.00;80.50;;;;;;5137760;28;20049;-75
2023/08/20 09:33:11;;;;;;;8.20;3.28;;;24.00;80.80;;;;;;5102845;28;20022;-75
2023/08/20 09:35:37;;;;;;;5.30;2.70;;;24.10;81.50;;;;;;5137745;28;20043;-75
2023/08/20 09:38:04;;;;;;;4.05;2.08;;;24.20;81.40;;;;;;5085964;28;20024;-75
2023/08/20 09:40:30;;;;;;;5.05;1.60;;;24.30;80.10;;;;;;5119630;28;20028;-74
2023/08/20 09:42:57;;;;;;;4.00;1.95;;;24.40;79.00;;;;;;5137526;28;20046;-75
2023/08/20 09:45:28;;;;;;;6.20;2.40;;;24.50;79.00;;;;;;5119555;28;20028;-75
2023/08/20 09:47:59;;;;;;;3.90;1.83;;;24.60;79.70;;;;;;5137417;28;20035;-75
2023/08/20 09:50:26;;;;;;;4.50;2.00;;;24.70;78.30;;;;;;5119330;28;20024;-74
2023/08/20 09:52:54;;;;;;;5.00;2.67;;;24.80;77.00;;;;;;5119163;28;20047;-76
2023/08/20 09:55:36;;;;;;;4.80;1.83;;;24.90;77.30;;;;;;5119177;28;20028;-76
2023/08/20 09:58:03;;;;;;;6.55;2.00;;;24.90;75.10;;;;;;5137433;28;20023;-75
2023/08/20 10:00:29;;;;;;;5.13;2.25;;;24.90;74.90;;;;;;5119443;28;20030;-75
2023/08/20 10:02:56;;;;;;;3.90;2.15;;;24.90;73.70;;;;;;5137287;28;20087;-75
2023/08/20 10:05:23;;;;;;;7.95;2.40;;;24.90;75.80;;;;;;5137071;28;20027;-75
2023/08/20 10:07:50;;;;;;;4.03;1.50;;;25.00;76.60;;;;;;5137077;28;20537;-76
2023/08/20 10:10:16;;;;;;;6.28;2.10;;;25.20;76.20;;;;;;5119015;28;20055;-76
2023/08/20 10:12:44;;;;;;;5.20;2.10;;;25.30;74.60;;;;;;5136912;28;20030;-76
2023/08/20 10:15:13;;;;;;;3.47;1.33;;;25.40;74.80;;;;;;5136811;28;20052;-76
2023/08/20 10:17:41;;;;;;;5.97;2.15;;;25.50;73.30;;;;;;5136808;28;20019;-76
2023/08/20 10:20:08;;;;;;;4.50;1.38;;;25.40;74.60;;;;;;5118837;28;20026;-77
2023/08/20 10:22:38;;;;;;;6.25;1.80;;;25.50;74.00;;;;;;5136780;28;20023;-76
2023/08/20 10:25:08;;;;;;;3.40;1.50;;;25.60;73.00;;;;;;5118635;28;20024;-76
2023/08/20 10:27:40;;;;;;;4.53;1.50;;;25.70;72.70;;;;;;5136698;28;20028;-77
2023/08/20 10:30:17;;;;;;;4.63;1.50;;;25.80;73.10;;;;;;5136705;28;20043;-76
2023/08/20 10:32:54;;;;;;;3.35;1.38;;;25.90;71.20;;;;;;5135640;28;20028;-77
2023/08/20 10:35:26;;;;;;;4.50;1.10;;;25.80;69.80;;;;;;5118392;28;20036;-75
2023/08/20 10:38:13;;;;;;;2.40;1.30;;;25.80;70.20;;;;;;5136486;28;20513;-76
2023/08/20 10:40:53;;;;;;;2.03;0.85;;;25.90;69.10;;;;;;5120291;28;20535;-76
2023/08/20 10:43:31;;;;;;;3.97;1.10;;;25.90;69.70;;;;;;5118298;28;20490;-76
2023/08/20 10:46:05;;;;;;;1.90;0.90;;;25.90;68.30;;;;;;5136313;28;20023;-76
2023/08/20 10:48:39;;;;;;;3.60;0.80;;;25.80;67.70;;;;;;5136291;28;20031;-77
2023/08/20 10:51:14;;;;;;;0.85;0.32;;;25.90;68.50;;;;;;5118304;28;20022;-77
2023/08/20 10:53:41;;;;;;;2.47;0.50;;;26.10;67.60;;;;;;5118068;28;20027;-77
2023/08/20 10:56:17;;;;;;;2.72;0.40;;;26.30;67.70;;;;;;5136157;28;20023;-76
2023/08/20 10:58:47;;;;;;;1.13;0.38;;;26.40;66.70;;;;;;5136129;28;20016;-76
2023/08/20 11:01:21;;;;;;;2.25;0.30;;;26.50;63.50;;;;;;5136058;28;20019;-76
2023/08/20 11:03:49;;;;;;;1.67;0.50;;;26.60;63.00;;;;;;5136038;28;20038;-76
2023/08/20 11:06:15;;;;;;;3.00;0.68;;;26.70;62.20;;;;;;5117864;28;20049;-76
2023/08/20 11:08:42;;;;;;;1.13;0.38;;;26.80;63.30;;;;;;5118055;28;20098;-77
2023/08/20 11:11:08;;;;;;;2.20;0.47;;;26.80;62.10;;;;;;5117749;28;20069;-76
2023/08/20 11:13:35;;;;;;;3.33;0.68;;;26.90;62.10;;;;;;5117758;28;20032;-76
2023/08/20 11:16:02;;;;;;;2.13;0.52;;;27.00;61.90;;;;;;5135479;28;20076;-77
2023/08/20 11:18:29;;;;;;;1.27;0.52;;;27.00;59.30;;;;;;5117629;28;20021;-76
2023/08/20 11:20:55;;;;;;;1.35;0.25;;;26.90;60.00;;;;;;5117639;28;20022;-76
2023/08/20 11:23:22;;;;;;;1.02;0.45;;;26.90;60.40;;;;;;5117643;28;20028;-76
2023/08/20 11:25:48;;;;;;;2.88;0.40;;;26.90;62.00;;;;;;5117532;28;20049;-76
2023/08/20 11:28:13;;;;;;;1.73;0.77;;;26.90;60.80;;;;;;5100900;28;20055;-76
2023/08/20 11:30:39;;;;;;;2.67;0.95;;;27.00;61.10;;;;;;5117417;28;20058;-76
2023/08/20 11:33:05;;;;;;;1.60;0.35;;;27.10;60.10;;;;;;5117301;28;20391;-76
2023/08/20 11:35:32;;;;;;;2.15;0.40;;;27.20;59.50;;;;;;5135287;28;20087;-76
2023/08/20 11:37:58;;;;;;;1.70;0.40;;;27.20;59.80;;;;;;5117558;28;20031;-76
2023/08/20 11:40:24;;;;;;;2.88;0.57;;;27.40;59.90;;;;;;5117187;28;20031;-76
2023/08/20 11:42:50;;;;;;;0.85;0.40;;;27.30;58.70;;;;;;5117236;28;20023;-77
2023/08/20 11:45:16;;;;;;;2.90;0.50;;;27.40;60.40;;;;;;5135037;28;20031;-76
2023/08/20 11:47:42;;;;;;;1.30;0.40;;;27.50;59.10;;;;;;5117218;28;20030;-77
2023/08/20 11:50:09;;;;;;;1.65;0.57;;;27.60;60.30;;;;;;5100031;28;20020;-76
2023/08/20 11:52:36;;;;;;;1.20;0.50;;;27.60;59.20;;;;;;5117092;28;20012;-76
2023/08/20 11:55:03;;;;;;;1.77;0.47;;;27.60;59.20;;;;;;5100328;28;20482;-76
2023/08/20 11:57:29;;;;;;;1.10;0.40;;;27.70;58.10;;;;;;5116857;28;20079;-76
2023/08/20 11:59:56;;;;;;;1.65;0.50;;;27.70;59.00;;;;;;5116821;28;20039;-77
2023/08/20 12:02:26;;;;;;;2.33;1.38;;;27.90;58.80;;;;;;5134796;28;20018;-76
2023/08/20 12:04:55;;;;;;;1.83;0.70;;;27.70;58.10;;;;;;5134816;28;20019;-76
2023/08/20 12:07:24;;;;;;;3.53;0.70;;;27.70;59.70;;;;;;5100245;28;20032;-77
2023/08/20 12:09:50;;;;;;;1.60;0.60;;;27.80;59.50;;;;;;5134824;28;20125;-75
2023/08/20 12:12:20;;;;;;;2.22;0.50;;;27.90;59.60;;;;;;5099704;28;20032;-76
2023/08/20 12:14:45;;;;;;;2.67;0.70;;;28.10;60.10;;;;;;5116303;28;20125;-76
2023/08/20 12:17:11;;;;;;;2.50;0.50;;;28.20;59.60;;;;;;5134658;28;20028;-76
2023/08/20 12:19:36;;;;;;;2.75;0.57;;;28.30;59.50;;;;;;5116626;28;20027;-76
2023/08/20 12:22:02;;;;;;;4.22;0.70;;;28.40;59.50;;;;;;5134480;28;20022;-76
2023/08/20 12:24:28;;;;;;;1.45;0.47;;;28.40;58.60;;;;;;5099572;28;20027;-77
2023/08/20 12:26:54;;;;;;;2.15;0.60;;;28.50;58.60;;;;;;5099544;28;20027;-76
2023/08/20 12:29:20;;;;;;;2.55;0.73;;;28.50;56.80;;;;;;5099511;28;20049;-77
2023/08/20 12:31:46;;;;;;;3.97;0.75;;;28.60;56.80;;;;;;5099536;28;20505;-76
2023/08/20 12:34:12;;;;;;;1.67;0.50;;;28.20;54.60;;;;;;5116285;28;20032;-76
2023/08/20 12:36:38;;;;;;;2.67;0.65;;;27.80;55.90;;;;;;5099323;28;20031;-77
2023/08/20 12:39:04;;;;;;;1.85;0.55;;;27.80;58.00;;;;;;5099416;28;20056;-77